Time;durP1;ratioP1;P1;durP2;ratioP2;P2;SDS_P1;SDS_P2;PMS_P1;PMS_P2;Temp;Humidity;BMP_temperature;BMP_pressure;BME280_temperature;BME280_humidity;BME280_pressure;Samples;Min_cycle;Max_cycle;Signal;HPM_P1;HPM_P2
2023/02/11 00:00:31;;;;;;;;;;;;;;;;;;5047153;28;19932;-71
2023/02/11 00:02:57;;;;;;;;;;;;;;;;;;5045079;28;19969;-71
2023/02/11 00:05:23;;;;;;;;;;;;;;;;;;5045410;28;20050;-71
2023/02/11 00:07:49;;;;;;;;;;;;;;;;;;5048037;28;19924;-70
2023/02/11 00:10:14;;;;;;;;;;;;;;;;;;5048023;28;19929;-71
2023/02/11 00:12:42;;;;;;;;;;;;;;;;;;5049860;28;19936;-71
2023/02/11 00:15:07;;;;;;;;;;;;;;;;;;5047934;28;20263;-70
2023/02/11 00:17:33;;;;;;;;;;;;;;;;;;5047038;28;19936;-71
2023/02/11 00:19:59;;;;;;;;;;;;;;;;;;5048759;28;19928;-70
2023/02/11 00:22:25;;;;;;;;;;;;;;;;;;5049271;28;19987;-70
2023/02/11 00:24:51;;;;;;;;;;;;;;;;;;5047937;28;20008;-70
2023/02/11 00:27:17;;;;;;;;;;;;;;;;;;5047414;28;19929;-70
2023/02/11 00:29:43;;;;;;;;;;;;;;;;;;5050424;28;19924;-71
2023/02/11 00:32:09;;;;;;;;;;;;;;;;;;5050803;28;20270;-70
2023/02/11 00:34:35;;;;;;;;;;;;;;;;;;5052564;28;20416;-70
2023/02/11 00:37:01;;;;;;;;;;;;;;;;;;5051791;28;19979;-70
2023/02/11 00:39:26;;;;;;;;;;;;;;;;;;5048528;28;19999;-70
2023/02/11 00:41:52;;;;;;;;;;;;;;;;;;5051335;28;19927;-70
2023/02/11 00:44:18;;;;;;;;;;;;;;;;;;5085198;28;19921;-72
2023/02/11 00:46:44;;;;;;;;;;;;;;;;;;5052398;28;19983;-70
2023/02/11 00:49:10;;;;;;;;;;;;;;;;;;5052201;28;19921;-70
2023/02/11 00:51:36;;;;;;;;;;;;;;;;;;5051101;28;20480;-70
2023/02/11 00:54:02;;;;;;;;;;;;;;;;;;5053912;28;19995;-70
2023/02/11 00:56:28;;;;;;;;;;;;;;;;;;5056663;28;19924;-70
2023/02/11 00:58:53;;;;;;;;;;;;;;;;;;5047083;28;20308;-71
2023/02/11 01:01:19;;;;;;;;;;;;;;;;;;5049706;28;19951;-70
2023/02/11 01:03:45;;;;;;;;;;;;;;;;;;5033457;28;19982;-70
2023/02/11 01:06:11;;;;;;;;;;;;;;;;;;5048964;28;20290;-70
2023/02/11 01:08:37;;;;;;;;;;;;;;;;;;5050930;28;19950;-71
2023/02/11 01:11:03;;;;;;;;;;;;;;;;;;5051739;28;19928;-71
2023/02/11 01:13:29;;;;;;;;;;;;;;;;;;5051763;28;19960;-70
2023/02/11 01:15:55;;;;;;;;;;;;;;;;;;5051874;28;20046;-70
2023/02/11 01:18:20;;;;;;;;;;;;;;;;;;5065428;28;20366;-70
2023/02/11 01:20:46;;;;;;;;;;;;;;;;;;5082833;28;19927;-70
2023/02/11 01:23:12;;;;;;;;;;;;;;;;;;5084061;28;19979;-71
2023/02/11 01:25:38;;;;;;;;;;;;;;;;;;5088653;28;19931;-71
2023/02/11 01:28:04;;;;;;;;;;;;;;;;;;5073655;28;19936;-71
2023/02/11 01:30:30;;;;;;;;;;;;;;;;;;5072332;28;20365;-70
2023/02/11 01:32:56;;;;;;;;;;;;;;;;;;5088362;28;20370;-70
2023/02/11 01:35:22;;;;;;;;;;;;;;;;;;5073846;28;19997;-71
2023/02/11 01:37:48;;;;;;;;;;;;;;;;;;5078917;28;20293;-71
2023/02/11 01:40:13;;;;;;;;;;;;;;;;;;5075532;28;20352;-71
2023/02/11 01:42:39;;;;;;;;;;;;;;;;;;5072665;28;19927;-70
2023/02/11 01:45:05;;;;;;;;;;;;;;;;;;5079273;28;19979;-70
2023/02/11 01:47:31;;;;;;;;;;;;;;;;;;5083753;28;20281;-70
2023/02/11 01:49:57;;;;;;;;;;;;;;;;;;5057727;28;19927;-70
2023/02/11 01:52:23;;;;;;;;;;;;;;;;;;5083073;28;19924;-70
2023/02/11 01:57:34;;;;;;;;;;;;;;;;;;5089110;28;19936;-71
2023/02/11 02:00:00;;;;;;;;;;;;;;;;;;5068443;28;19920;-70
2023/02/11 02:02:26;;;;;;;;;;;;;;;;;;5077174;28;20304;-70
2023/02/11 02:04:51;;;;;;;;;;;;;;;;;;5074667;28;19931;-70
2023/02/11 02:07:17;;;;;;;;;;;;;;;;;;5076132;28;19929;-70
2023/02/11 02:09:43;;;;;;;;;;;;;;;;;;5084014;28;19920;-70
2023/02/11 02:12:09;;;;;;;;;;;;;;;;;;5078612;28;19967;-70
2023/02/11 02:14:35;;;;;;;;;;;;;;;;;;5090327;28;19950;-70
2023/02/11 02:17:01;;;;;;;;;;;;;;;;;;5077300;28;19928;-70
2023/02/11 02:19:27;;;;;;;;;;;;;;;;;;5090504;28;19924;-70
2023/02/11 02:21:53;;;;;;;;;;;;;;;;;;5070671;28;19928;-70
2023/02/11 02:24:18;;;;;;;;;;;;;;;;;;5092490;28;19924;-72
2023/02/11 02:26:44;;;;;;;;;;;;;;;;;;5073653;28;19928;-70
2023/02/11 02:29:10;;;;;;;;;;;;;;;;;;5073360;28;20408;-70
2023/02/11 02:31:36;;;;;;;;;;;;;;;;;;5089603;28;19967;-71
2023/02/11 02:34:02;;;;;;;;;;;;;;;;;;5069958;28;19923;-70
2023/02/11 02:36:28;;;;;;;;;;;;;;;;;;5090562;28;20358;-70
2023/02/11 02:38:54;;;;;;;;;;;;;;;;;;5090195;28;19928;-70
2023/02/11 02:41:20;;;;;;;;;;;;;;;;;;5089118;28;20407;-71
2023/02/11 02:43:46;;;;;;;;;;;;;;;;;;5089419;28;19923;-70
2023/02/11 02:46:12;;;;;;;;;;;;;;;;;;5085646;28;19928;-71
2023/02/11 02:48:37;;;;;;;;;;;;;;;;;;5076865;28;20396;-70
2023/02/11 02:51:03;;;;;;;;;;;;;;;;;;5079993;28;20054;-70
2023/02/11 02:53:29;;;;;;;;;;;;;;;;;;5080272;28;20007;-71
2023/02/11 02:55:55;;;;;;;;;;;;;;;;;;5084561;28;19928;-70
2023/02/11 02:58:21;;;;;;;;;;;;;;;;;;5078413;28;19935;-69
2023/02/11 03:00:47;;;;;;;;;;;;;;;;;;5089356;28;19924;-71
2023/02/11 03:03:13;;;;;;;;;;;;;;;;;;5077353;28;19981;-71
2023/02/11 03:05:39;;;;;;;;;;;;;;;;;;5084499;28;20387;-70
2023/02/11 03:08:07;;;;;;;;;;;;;;;;;;5089830;28;19920;-71
2023/02/11 03:10:33;;;;;;;;;;;;;;;;;;5087362;28;19921;-71
2023/02/11 03:12:59;;;;;;;;;;;;;;;;;;5092620;28;19921;-70
2023/02/11 03:15:24;;;;;;;;;;;;;;;;;;5073628;28;19930;-69
2023/02/11 03:17:50;;;;;;;;;;;;;;;;;;5091713;28;20361;-70
2023/02/11 03:20:16;;;;;;;;;;;;;;;;;;5073857;28;19920;-71
2023/02/11 03:22:42;;;;;;;;;;;;;;;;;;5092175;28;19927;-70
2023/02/11 03:25:08;;;;;;;;;;;;;;;;;;5053945;28;19928;-70
2023/02/11 03:27:34;;;;;;;;;;;;;;;;;;5055387;28;19928;-71
2023/02/11 03:30:00;;;;;;;;;;;;;;;;;;5090543;28;19920;-71
2023/02/11 03:32:26;;;;;;;;;;;;;;;;;;5103907;22;19916;-65
2023/02/11 03:34:52;;;;;;;;;;;;;;;;;;5088345;28;19952;-66
2023/02/11 03:37:18;;;;;;;;;;;;;;;;;;5092165;28;20404;-64
2023/02/11 03:39:44;;;;;;;;;;;;;;;;;;5091044;28;19928;-64
2023/02/11 03:42:10;;;;;;;;;;;;;;;;;;5086806;28;19981;-64
2023/02/11 03:44:36;;;;;;;;;;;;;;;;;;5090417;28;20502;-65
2023/02/11 03:47:02;;;;;;;;;;;;;;;;;;5091669;28;19920;-65
2023/02/11 03:49:28;;;;;;;;;;;;;;;;;;5090816;28;19927;-65
2023/02/11 03:51:53;;;;;;;;;;;;;;;;;;5105950;28;19920;-65
2023/02/11 03:54:19;;;;;;;;;;;;;;;;;;5090551;28;20362;-66
2023/02/11 03:56:45;;;;;;;;;;;;;;;;;;5091104;28;19920;-66
2023/02/11 03:59:11;;;;;;;;;;;;;;;;;;5091309;28;19943;-66
2023/02/11 04:01:37;;;;;;;;;;;;;;;;;;5088270;28;20285;-66
2023/02/11 04:04:03;;;;;;;;;;;;;;;;;;5106466;28;19931;-66
2023/02/11 04:06:29;;;;;;;;;;;;;;;;;;5094685;28;19924;-66
2023/02/11 04:08:55;;;;;;;;;;;;;;;;;;5084507;28;19950;-66
2023/02/11 04:11:21;;;;;;;;;;;;;;;;;;5094821;28;19920;-66
2023/02/11 04:13:46;;;;;;;;;;;;;;;;;;5095346;28;19924;-66
2023/02/11 04:16:12;;;;;;;;;;;;;;;;;;5095292;28;19931;-66
2023/02/11 04:18:38;;;;;;;;;;;;;;;;;;5094164;28;19920;-66
2023/02/11 04:21:04;;;;;;;;;;;;;;;;;;5094769;28;19928;-66
2023/02/11 04:23:30;;;;;;;;;;;;;;;;;;5093968;28;20384;-66
2023/02/11 04:25:56;;;;;;;;;;;;;;;;;;5093582;28;19971;-66
2023/02/11 04:28:22;;;;;;;;;;;;;;;;;;5094141;28;19927;-66
2023/02/11 04:30:48;;;;;;;;;;;;;;;;;;5095597;28;19923;-66
2023/02/11 04:33:14;;;;;;;;;;;;;;;;;;5094968;28;19924;-66
2023/02/11 04:35:39;;;;;;;;;;;;;;;;;;5095408;28;19928;-66
2023/02/11 04:38:05;;;;;;;;;;;;;;;;;;5094499;28;20020;-66
2023/02/11 04:40:31;;;;;;;;;;;;;;;;;;5092474;28;19924;-66
2023/02/11 04:42:57;;;;;;;;;;;;;;;;;;5091144;28;19927;-66
2023/02/11 04:45:23;;;;;;;;;;;;;;;;;;5094524;28;20365;-66
2023/02/11 04:47:49;;;;;;;;;;;;;;;;;;5092586;28;19927;-66
2023/02/11 04:50:15;;;;;;;;;;;;;;;;;;5094100;28;19924;-64
2023/02/11 04:52:41;;;;;;;;;;;;;;;;;;5093491;28;19978;-65
2023/02/11 04:55:07;;;;;;;;;;;;;;;;;;5093695;28;19923;-65
2023/02/11 04:57:32;;;;;;;;;;;;;;;;;;5092374;28;19927;-65
2023/02/11 04:59:58;;;;;;;;;;;;;;;;;;5093772;28;19932;-65
2023/02/11 05:02:24;;;;;;;;;;;;;;;;;;5092510;28;20665;-65
2023/02/11 05:04:50;;;;;;;;;;;;;;;;;;5094366;28;19974;-65
2023/02/11 05:07:16;;;;;;;;;;;;;;;;;;5094457;28;19927;-65
2023/02/11 05:09:42;;;;;;;;;;;;;;;;;;5094735;28;19919;-65
2023/02/11 05:12:08;;;;;;;;;;;;;;;;;;5092113;28;20958;-65
2023/02/11 05:14:34;;;;;;;;;;;;;;;;;;5094453;28;20442;-65
2023/02/11 05:17:00;;;;;;;;;;;;;;;;;;5093713;28;19920;-65
2023/02/11 05:19:25;;;;;;;;;;;;;;;;;;5092089;28;19920;-65
2023/02/11 05:21:52;;;;;;;;;;;;;;;;;;5093706;28;19956;-66
2023/02/11 05:24:18;;;;;;;;;;;;;;;;;;5094204;28;19924;-65
2023/02/11 05:26:44;;;;;;;;;;;;;;;;;;5093850;28;19921;-65
2023/02/11 05:29:09;;;;;;;;;;;;;;;;;;5093994;28;20285;-66
2023/02/11 05:31:35;;;;;;;;;;;;;;;;;;5093320;28;19928;-64
2023/02/11 05:34:02;;;;;;;;;;;;;;;;;;5088282;28;19924;-65
2023/02/11 05:36:28;;;;;;;;;;;;;;;;;;5093456;28;19924;-65
2023/02/11 05:38:54;;;;;;;;;;;;;;;;;;5090652;28;20300;-65
2023/02/11 05:41:20;;;;;;;;;;;;;;;;;;5083479;28;19932;-65
2023/02/11 05:43:46;;;;;;;;;;;;;;;;;;5092164;28;19924;-65
2023/02/11 05:46:12;;;;;;;;;;;;;;;;;;5092497;28;20005;-65
2023/02/11 05:48:38;;;;;;;;;;;;;;;;;;5092210;28;19975;-65
2023/02/11 05:51:04;;;;;;;;;;;;;;;;;;5092221;28;20501;-66
2023/02/11 05:53:29;;;;;;;;;;;;;;;;;;5092922;28;19920;-66
2023/02/11 05:55:56;;;;;;;;;;;;;;;;;;5094639;28;20339;-66
2023/02/11 05:58:22;;;;;;;;;;;;;;;;;;5090086;28;20313;-66
2023/02/11 06:00:48;;;;;;;;;;;;;;;;;;5080433;28;19934;-66
2023/02/11 06:03:13;;;;;;;;;;;;;;;;;;5094252;28;19933;-65
2023/02/11 06:05:39;;;;;;;;;;;;;;;;;;5087561;28;19927;-66
2023/02/11 06:08:05;;;;;;;;;;;;;;;;;;5088580;28;19920;-66
2023/02/11 06:10:31;;;;;;;;;;;;;;;;;;5094351;28;19927;-65
2023/02/11 06:12:57;;;;;;;;;;;;;;;;;;5092373;28;20357;-66
2023/02/11 06:15:23;;;;;;;;;;;;;;;;;;5094104;28;19920;-65
2023/02/11 06:17:49;;;;;;;;;;;;;;;;;;5093599;28;19931;-66
2023/02/11 06:20:15;;;;;;;;;;;;;;;;;;5094140;28;20277;-66
2023/02/11 06:22:41;;;;;;;;;;;;;;;;;;5093887;28;20024;-66
2023/02/11 06:25:06;;;;;;;;;;;;;;;;;;5093851;28;19920;-66
2023/02/11 06:27:32;;;;;;;;;;;;;;;;;;5093179;28;19921;-65
2023/02/11 06:29:58;;;;;;;;;;;;;;;;;;5093899;28;20415;-65
2023/02/11 06:32:24;;;;;;;;;;;;;;;;;;5093502;28;19979;-66
2023/02/11 06:34:50;;;;;;;;;;;;;;;;;;5091926;28;19923;-66
2023/02/11 06:37:16;;;;;;;;;;;;;;;;;;5093652;28;19924;-65
2023/02/11 06:39:42;;;;;;;;;;;;;;;;;;5093353;28;20331;-66
2023/02/11 06:42:08;;;;;;;;;;;;;;;;;;5093584;28;19924;-65
2023/02/11 06:44:34;;;;;;;;;;;;;;;;;;5091965;28;19968;-66
2023/02/11 06:46:59;;;;;;;;;;;;;;;;;;5083936;28;19924;-66
2023/02/11 06:49:25;;;;;;;;;;;;;;;;;;5086578;28;19920;-65
2023/02/11 06:51:51;;;;;;;;;;;;;;;;;;5091823;28;19942;-66
2023/02/11 06:54:17;;;;;;;;;;;;;;;;;;5091868;28;19927;-66
2023/02/11 06:56:43;;;;;;;;;;;;;;;;;;5091819;28;19927;-66
2023/02/11 06:59:09;;;;;;;;;;;;;;;;;;5091473;28;19972;-66
2023/02/11 07:01:35;;;;;;;;;;;;;;;;;;5090990;28;19934;-66
2023/02/11 07:04:01;;;;;;;;;;;;;;;;;;5091099;28;20015;-66
2023/02/11 07:06:27;;;;;;;;;;;;;;;;;;5084543;28;19924;-66
2023/02/11 07:08:53;;;;;;;;;;;;;;;;;;5091915;28;19920;-65
2023/02/11 07:11:19;;;;;;;;;;;;;;;;;;5079838;28;19920;-65
2023/02/11 07:13:45;;;;;;;;;;;;;;;;;;5088713;28;19931;-65
2023/02/11 07:16:11;;;;;;;;;;;;;;;;;;5088070;28;19924;-65
2023/02/11 07:18:37;;;;;;;;;;;;;;;;;;5091434;28;19920;-64
2023/02/11 07:21:03;;;;;;;;;;;;;;;;;;5092022;28;20021;-64
2023/02/11 07:23:28;;;;;;;;;;;;;;;;;;5091416;28;20380;-65
2023/02/11 07:25:54;;;;;;;;;;;;;;;;;;5090594;28;19935;-64
2023/02/11 07:28:20;;;;;;;;;;;;;;;;;;5091411;28;19943;-64
2023/02/11 07:30:46;;;;;;;;;;;;;;;;;;5089311;28;19942;-64
2023/02/11 07:33:12;;;;;;;;;;;;;;;;;;5090352;28;19924;-64
2023/02/11 07:35:38;;;;;;;;;;;;;;;;;;5106953;28;19924;-64
2023/02/11 07:38:04;;;;;;;;;;;;;;;;;;5089473;28;20377;-64
2023/02/11 07:40:30;;;;;;;;;;;;;;;;;;5090780;28;19931;-64
2023/02/11 07:42:56;;;;;;;;;;;;;;;;;;5089597;28;19931;-65
2023/02/11 07:45:23;;;;;;;;;;;;;;;;;;5088575;28;19924;-65
2023/02/11 07:47:49;;;;;;;;;;;;;;;;;;5085401;28;19924;-64
2023/02/11 07:50:15;;;;;;;;;;;;;;;;;;5083952;28;19969;-65
2023/02/11 07:52:41;;;;;;;;;;;;;;;;;;5079678;28;19920;-66
2023/02/11 07:55:08;;;;;;;;;;;;;;;;;;5072586;28;19967;-65
2023/02/11 07:57:33;;;;;;;;;;;;;;;;;;5084047;28;19924;-65
2023/02/11 07:59:59;;;;;;;;;;;;;;;;;;5079671;28;19990;-65
2023/02/11 08:02:25;;;;;;;;;;;;;;;;;;5085610;28;19961;-65
2023/02/11 08:04:51;;;;;;;;;;;;;;;;;;5079763;28;19959;-66
2023/02/11 08:07:17;;;;;;;;;;;;;;;;;;5091223;28;19927;-66
2023/02/11 08:09:43;;;;;;;;;;;;;;;;;;5091485;28;19973;-66
2023/02/11 08:12:09;;;;;;;;;;;;;;;;;;5091701;28;19920;-66
2023/02/11 08:14:35;;;;;;;;;;;;;;;;;;5089961;28;20640;-66
2023/02/11 08:17:01;;;;;;;;;;;;;;;;;;5088707;28;19924;-66
2023/02/11 08:19:27;;;;;;;;;;;;;;;;;;5091722;28;19989;-66
2023/02/11 08:21:52;;;;;;;;;;;;;;;;;;5089993;28;19931;-66
2023/02/11 08:24:18;;;;;;;;;;;;;;;;;;5087228;28;20393;-66
2023/02/11 08:26:44;;;;;;;;;;;;;;;;;;5087147;28;19928;-66
2023/02/11 08:29:10;;;;;;;;;;;;;;;;;;5086984;28;19920;-66
2023/02/11 08:31:36;;;;;;;;;;;;;;;;;;5073367;28;19930;-66
2023/02/11 08:34:02;;;;;;;;;;;;;;;;;;5085617;28;19920;-66
2023/02/11 08:36:28;;;;;;;;;;;;;;;;;;5090183;28;20311;-66
2023/02/11 08:38:54;;;;;;;;;;;;;;;;;;5087429;28;20158;-66
2023/02/11 08:41:20;;;;;;;;;;;;;;;;;;5085692;28;20293;-66
2023/02/11 08:43:46;;;;;;;;;;;;;;;;;;5086206;28;20001;-66
2023/02/11 08:46:12;;;;;;;;;;;;;;;;;;5088414;28;19963;-66
2023/02/11 08:48:37;;;;;;;;;;;;;;;;;;5085872;28;19920;-66
2023/02/11 08:51:03;;;;;;;;;;;;;;;;;;5088930;28;20380;-67
2023/02/11 08:53:29;;;;;;;;;;;;;;;;;;5094312;28;19965;-66
2023/02/11 08:55:55;;;;;;;;;;;;;;;;;;5091941;28;20304;-67
2023/02/11 08:58:21;;;;;;;;;;;;;;;;;;5091985;28;19920;-67
2023/02/11 09:00:47;;;;;;;;;;;;;;;;;;5093364;28;19924;-67
2023/02/11 09:03:13;;;;;;;;;;;;;;;;;;5092116;28;19919;-66
2023/02/11 09:05:39;;;;;;;;;;;;;;;;;;5107758;28;19928;-67
2023/02/11 09:08:05;;;;;;;;;;;;;;;;;;5092557;28;20257;-66
2023/02/11 09:10:30;;;;;;;;;;;;;;;;;;5090296;28;19958;-66
2023/02/11 09:12:56;;;;;;;;;;;;;;;;;;5088953;28;19942;-66
2023/02/11 09:15:22;;;;;;;;;;;;;;;;;;5091197;28;19931;-66
2023/02/11 09:17:48;;;;;;;;;;;;;;;;;;5089706;28;20007;-66
2023/02/11 09:20:14;;;;;;;;;;;;;;;;;;5091430;28;19928;-66
2023/02/11 09:22:40;;;;;;;;;;;;;;;;;;5091396;28;19920;-66
2023/02/11 09:25:06;;;;;;;;;;;;;;;;;;5091478;28;19931;-66
2023/02/11 09:27:32;;;;;;;;;;;;;;;;;;5092413;28;19924;-66
2023/02/11 09:29:58;;;;;;;;;;;;;;;;;;5090296;28;20381;-66
2023/02/11 09:32:24;;;;;;;;;;;;;;;;;;5091848;28;19920;-66
2023/02/11 09:34:49;;;;;;;;;;;;;;;;;;5092627;28;19938;-66
2023/02/11 09:37:15;;;;;;;;;;;;;;;;;;5089749;28;19982;-66
2023/02/11 09:39:41;;;;;;;;;;;;;;;;;;5091460;28;19930;-66
2023/02/11 09:42:07;;;;;;;;;;;;;;;;;;5093317;28;19919;-66
2023/02/11 09:44:33;;;;;;;;;;;;;;;;;;5092186;28;19964;-67
2023/02/11 09:46:59;;;;;;;;;;;;;;;;;;5087766;28;19923;-66
2023/02/11 09:49:26;;;;;;;;;;;;;;;;;;5090391;28;19924;-66
2023/02/11 09:51:52;;;;;;;;;;;;;;;;;;5090999;28;19935;-66
2023/02/11 09:54:18;;;;;;;;;;;;;;;;;;5092384;28;19920;-66
2023/02/11 09:56:44;;;;;;;;;;;;;;;;;;5084594;28;21459;-66
2023/02/11 09:59:10;;;;;;;;;;;;;;;;;;5083646;28;20027;-66
2023/02/11 10:01:36;;;;;;;;;;;;;;;;;;5075326;28;19935;-66
2023/02/11 10:04:02;;;;;;;;;;;;;;;;;;5091826;28;20372;-66
2023/02/11 10:06:28;;;;;;;;;;;;;;;;;;5086533;28;19965;-66
2023/02/11 10:08:54;;;;;;;;;;;;;;;;;;5091621;28;19951;-67
2023/02/11 10:11:19;;;;;;;;;;;;;;;;;;5091711;28;19924;-66
2023/02/11 10:13:45;;;;;;;;;;;;;;;;;;5088675;28;19934;-66
2023/02/11 10:16:11;;;;;;;;;;;;;;;;;;5088251;28;19927;-66
2023/02/11 10:18:37;;;;;;;;;;;;;;;;;;5092006;28;20003;-66
2023/02/11 10:21:03;;;;;;;;;;;;;;;;;;5092138;28;20412;-66
2023/02/11 10:23:29;;;;;;;;;;;;;;;;;;5099438;28;19920;-66
2023/02/11 10:25:55;;;;;;;;;;;;;;;;;;5085541;28;19951;-66
2023/02/11 10:28:23;;;;;;;;;;;;;;;;;;5095320;28;19950;-66
2023/02/11 10:30:49;;;;;;;;;;;;;;;;;;5078252;28;19924;-67
2023/02/11 10:33:15;;;;;;;;;;;;;;;;;;5087239;28;20376;-66
2023/02/11 10:35:42;;;;;;;;;;;;;;;;;;5086187;28;19946;-66
2023/02/11 10:38:08;;;;;;;;;;;;;;;;;;5083232;28;19935;-66
2023/02/11 10:40:34;;;;;;;;;;;;;;;;;;5088763;28;20583;-66
2023/02/11 10:43:03;;;;;;;;;;;;;;;;;;5089543;28;19966;-66
2023/02/11 10:45:29;;;;;;;;;;;;;;;;;;5089206;28;19927;-66
2023/02/11 10:47:55;;;;;;;;;;;;;;;;;;5087459;28;19924;-66
2023/02/11 10:50:21;;;;;;;;;;;;;;;;;;5105224;28;19977;-66
2023/02/11 10:52:47;;;;;;;;;;;;;;;;;;5091193;28;19920;-66
2023/02/11 10:55:12;;;;;;;;;;;;;;;;;;5090262;28;20261;-66
2023/02/11 10:57:43;;;;;;;;;;;;;;;;;;5090293;28;21469;-66
2023/02/11 11:00:09;;;;;;;;;;;;;;;;;;5092955;28;19920;-66
2023/02/11 11:02:35;;;;;;;;;;;;;;;;;;5091026;28;19982;-67
2023/02/11 11:05:01;;;;;;;;;;;;;;;;;;5088639;28;19927;-66
2023/02/11 11:07:27;;;;;;;;;;;;;;;;;;5089413;28;19920;-66
2023/02/11 11:09:53;;;;;;;;;;;;;;;;;;5092255;28;20482;-66
2023/02/11 11:12:19;;;;;;;;;;;;;;;;;;5090870;28;19927;-66
2023/02/11 11:14:45;;;;;;;;;;;;;;;;;;5083652;28;19920;-65
2023/02/11 11:17:11;;;;;;;;;;;;;;;;;;5090280;28;19920;-65
2023/02/11 11:19:38;;;;;;;;;;;;;;;;;;5086802;28;19935;-65
2023/02/11 11:22:04;;;;;;;;;;;;;;;;;;5082999;28;20377;-65
2023/02/11 11:24:30;;;;;;;;;;;;;;;;;;5087122;28;19927;-65
2023/02/11 11:26:55;;;;;;;;;;;;;;;;;;5090546;28;20034;-65
2023/02/11 11:29:21;;;;;;;;;;;;;;;;;;5087881;28;20003;-65
2023/02/11 11:31:47;;;;;;;;;;;;;;;;;;5087758;28;20345;-65
2023/02/11 11:34:13;;;;;;;;;;;;;;;;;;5086922;28;20038;-65
2023/02/11 11:36:39;;;;;;;;;;;;;;;;;;5086663;28;20057;-66
2023/02/11 11:39:05;;;;;;;;;;;;;;;;;;5082667;28;19980;-66
2023/02/11 11:41:31;;;;;;;;;;;;;;;;;;5084234;28;19935;-66
2023/02/11 11:43:57;;;;;;;;;;;;;;;;;;5088259;28;19920;-66
2023/02/11 11:46:23;;;;;;;;;;;;;;;;;;5086115;28;19931;-67
2023/02/11 11:48:49;;;;;;;;;;;;;;;;;;5086073;28;20503;-66
2023/02/11 11:51:15;;;;;;;;;;;;;;;;;;5090800;28;19924;-66
2023/02/11 11:53:41;;;;;;;;;;;;;;;;;;5090299;28;19920;-66
2023/02/11 11:56:07;;;;;;;;;;;;;;;;;;5089443;28;19992;-66
2023/02/11 11:58:33;;;;;;;;;;;;;;;;;;5091995;28;20450;-66
2023/02/11 12:00:59;;;;;;;;;;;;;;;;;;5087856;28;20243;-66
2023/02/11 12:03:25;;;;;;;;;;;;;;;;;;5091881;28;20379;-66
2023/02/11 12:05:50;;;;;;;;;;;;;;;;;;5089872;28;19924;-66
2023/02/11 12:08:16;;;;;;;;;;;;;;;;;;5087446;28;20588;-66
2023/02/11 12:10:42;;;;;;;;;;;;;;;;;;5089126;28;20007;-66
2023/02/11 12:13:08;;;;;;;;;;;;;;;;;;5089642;28;19924;-66
2023/02/11 12:15:34;;;;;;;;;;;;;;;;;;5089883;28;19924;-66
2023/02/11 12:18:00;;;;;;;;;;;;;;;;;;5079274;28;20266;-66
2023/02/11 12:20:26;;;;;;;;;;;;;;;;;;5090955;28;20011;-66
2023/02/11 12:22:52;;;;;;;;;;;;;;;;;;5090779;28;19923;-67
2023/02/11 12:25:18;;;;;;;;;;;;;;;;;;5090203;28;19931;-66
2023/02/11 12:27:44;;;;;;;;;;;;;;;;;;5092051;28;19959;-66
2023/02/11 12:30:10;;;;;;;;;;;;;;;;;;5089616;28;19930;-66
2023/02/11 12:32:35;;;;;;;;;;;;;;;;;;5092126;28;19920;-66
2023/02/11 12:35:01;;;;;;;;;;;;;;;;;;5092580;28;19996;-66
2023/02/11 12:37:27;;;;;;;;;;;;;;;;;;5094210;28;20003;-66
2023/02/11 12:39:53;;;;;;;;;;;;;;;;;;5092505;28;19929;-66
2023/02/11 12:45:03;;;;;;;;;;;;;;;;;;5085296;28;19920;-65
2023/02/11 12:47:29;;;;;;;;;;;;;;;;;;5093002;28;20318;-65
2023/02/11 12:49:55;;;;;;;;;;;;;;;;;;5093846;28;19974;-66
2023/02/11 12:52:21;;;;;;;;;;;;;;;;;;5093468;28;19924;-65
2023/02/11 12:54:47;;;;;;;;;;;;;;;;;;5095146;28;19969;-65
2023/02/11 12:57:13;;;;;;;;;;;;;;;;;;5093199;28;19924;-65
2023/02/11 12:59:39;;;;;;;;;;;;;;;;;;5091117;28;20016;-65
2023/02/11 13:02:05;;;;;;;;;;;;;;;;;;5094762;28;19932;-67
2023/02/11 13:04:31;;;;;;;;;;;;;;;;;;5090041;28;19969;-65
2023/02/11 13:06:56;;;;;;;;;;;;;;;;;;5094399;28;19966;-64
2023/02/11 13:09:22;;;;;;;;;;;;;;;;;;5093427;28;19920;-65
2023/02/11 13:11:50;;;;;;;;;;;;;;;;;;5093130;28;19955;-65
2023/02/11 13:14:16;;;;;;;;;;;;;;;;;;5093022;28;19920;-65
2023/02/11 13:16:42;;;;;;;;;;;;;;;;;;5091701;28;19924;-65
2023/02/11 13:19:08;;;;;;;;;;;;;;;;;;5089617;28;20453;-64
2023/02/11 13:21:34;;;;;;;;;;;;;;;;;;5090126;28;19920;-65
2023/02/11 13:24:01;;;;;;;;;;;;;;;;;;5094395;28;19924;-65
2023/02/11 13:26:27;;;;;;;;;;;;;;;;;;5070206;28;19927;-65
2023/02/11 13:28:53;;;;;;;;;;;;;;;;;;5094335;28;19920;-65
2023/02/11 13:31:19;;;;;;;;;;;;;;;;;;5094079;28;19931;-65
2023/02/11 13:33:48;;;;;;;;;;;;;;;;;;5094299;28;19935;-65
2023/02/11 13:36:14;;;;;;;;;;;;;;;;;;5094370;28;20005;-65
2023/02/11 13:38:40;;;;;;;;;;;;;;;;;;5094177;28;20507;-65
2023/02/11 13:41:06;;;;;;;;;;;;;;;;;;5091785;28;20012;-66
2023/02/11 13:43:32;;;;;;;;;;;;;;;;;;5094457;28;19924;-66
2023/02/11 13:45:58;;;;;;;;;;;;;;;;;;5094315;28;19973;-66
2023/02/11 13:48:24;;;;;;;;;;;;;;;;;;5081261;28;19931;-66
2023/02/11 13:50:50;;;;;;;;;;;;;;;;;;5093236;28;19920;-66
2023/02/11 13:53:16;;;;;;;;;;;;;;;;;;5092719;28;19959;-66
2023/02/11 13:55:42;;;;;;;;;;;;;;;;;;5093668;28;20696;-66
2023/02/11 13:58:08;;;;;;;;;;;;;;;;;;5092512;28;19934;-66
2023/02/11 14:00:34;;;;;;;;;;;;;;;;;;5092303;28;19927;-66
2023/02/11 14:11:15;;;;;;;;;;;;;;;;;;5093477;28;19966;-66
2023/02/11 14:13:41;;;;;;;;;;;;;;;;;;5093650;28;19986;-66
2023/02/11 14:16:07;;;;;;;;;;;;;;;;;;5093671;28;20361;-66
2023/02/11 14:18:32;;;;;;;;;;;;;;;;;;5093538;28;19924;-66
2023/02/11 14:20:58;;;;;;;;;;;;;;;;;;5092722;28;20341;-66
2023/02/11 14:23:26;;;;;;;;;;;;;;;;;;5073926;28;19920;-66
2023/02/11 14:25:52;;;;;;;;;;;;;;;;;;5093486;28;19924;-66
2023/02/11 14:28:17;;;;;;;;;;;;;;;;;;5075206;28;19920;-66
2023/02/11 14:30:43;;;;;;;;;;;;;;;;;;5093537;28;19927;-65
2023/02/11 14:33:09;;;;;;;;;;;;;;;;;;5091763;28;19928;-66
2023/02/11 14:35:36;;;;;;;;;;;;;;;;;;5091969;28;19931;-67
2023/02/11 14:38:02;;;;;;;;;;;;;;;;;;5093310;28;19924;-67
2023/02/11 14:40:27;;;;;;;;;;;;;;;;;;5090947;28;19943;-65
2023/02/11 14:42:53;;;;;;;;;;;;;;;;;;5093186;28;19924;-65
2023/02/11 14:45:19;;;;;;;;;;;;;;;;;;5093054;28;20360;-66
2023/02/11 14:47:45;;;;;;;;;;;;;;;;;;5091414;28;20025;-66
2023/02/11 14:50:11;;;;;;;;;;;;;;;;;;5091008;28;19940;-65
2023/02/11 14:52:37;;;;;;;;;;;;;;;;;;5091172;28;20568;-66
2023/02/11 14:55:03;;;;;;;;;;;;;;;;;;5090283;28;19980;-66
2023/02/11 14:57:29;;;;;;;;;;;;;;;;;;5092678;28;20404;-65
2023/02/11 14:59:57;;;;;;;;;;;;;;;;;;5092617;28;20320;-66
2023/02/11 15:02:25;;;;;;;;;;;;;;;;;;5089168;28;19920;-66
2023/02/11 15:04:50;;;;;;;;;;;;;;;;;;5072301;28;19920;-66
2023/02/11 15:07:17;;;;;;;;;;;;;;;;;;5071040;28;19925;-65
2023/02/11 15:09:43;;;;;;;;;;;;;;;;;;5071381;28;20255;-66
2023/02/11 15:12:14;;;;;;;;;;;;;;;;;;5081182;28;19965;-67
2023/02/11 15:14:40;;;;;;;;;;;;;;;;;;5091749;28;20316;-66
2023/02/11 15:17:06;;;;;;;;;;;;;;;;;;5092343;28;19983;-66
2023/02/11 15:19:32;;;;;;;;;;;;;;;;;;5092660;28;19928;-66
2023/02/11 15:21:58;;;;;;;;;;;;;;;;;;5075146;28;19927;-66
2023/02/11 15:24:24;;;;;;;;;;;;;;;;;;5071433;28;19932;-66
2023/02/11 15:26:50;;;;;;;;;;;;;;;;;;5073304;28;19928;-66
2023/02/11 15:29:16;;;;;;;;;;;;;;;;;;5084271;28;19920;-67
2023/02/11 15:31:42;;;;;;;;;;;;;;;;;;5090049;28;19920;-66
2023/02/11 15:34:08;;;;;;;;;;;;;;;;;;5081115;28;19924;-65
2023/02/11 15:36:35;;;;;;;;;;;;;;;;;;5082428;28;19938;-65
2023/02/11 15:39:01;;;;;;;;;;;;;;;;;;5080737;28;20649;-65
2023/02/11 15:41:26;;;;;;;;;;;;;;;;;;5088681;28;19920;-65
2023/02/11 15:43:53;;;;;;;;;;;;;;;;;;5104846;28;19924;-65
2023/02/11 15:46:19;;;;;;;;;;;;;;;;;;5083858;28;19958;-65
2023/02/11 15:48:44;;;;;;;;;;;;;;;;;;5065307;22;19964;-65
2023/02/11 15:51:10;;;;;;;;;;;;;;;;;;5049159;28;19948;-65
2023/02/11 15:53:37;;;;;;;;;;;;;;;;;;5045690;28;20270;-65
2023/02/11 15:56:02;;;;;;;;;;;;;;;;;;5048638;28;19974;-65
2023/02/11 15:58:28;;;;;;;;;;;;;;;;;;5046886;28;20358;-66
2023/02/11 16:00:58;;;;;;;;;;;;;;;;;;5049609;28;19955;-65
2023/02/11 16:03:24;;;;;;;;;;;;;;;;;;5051070;28;19920;-65
2023/02/11 16:05:50;;;;;;;;;;;;;;;;;;5056867;28;20581;-65
2023/02/11 16:08:17;;;;;;;;;;;;;;;;;;5055438;28;20916;-65
2023/02/11 16:10:43;;;;;;;;;;;;;;;;;;5056748;28;19928;-66
2023/02/11 16:13:09;;;;;;;;;;;;;;;;;;5055213;28;19924;-66
2023/02/11 16:15:37;;;;;;;;;;;;;;;;;;5055877;28;19921;-66
2023/02/11 16:18:03;;;;;;;;;;;;;;;;;;5056317;28;19928;-66
2023/02/11 16:20:28;;;;;;;;;;;;;;;;;;5048392;28;19969;-66
2023/02/11 16:22:54;;;;;;;;;;;;;;;;;;5055891;28;19935;-66
2023/02/11 16:25:20;;;;;;;;;;;;;;;;;;5056907;28;19921;-65
2023/02/11 16:27:46;;;;;;;;;;;;;;;;;;5056603;28;19928;-66
2023/02/11 16:30:12;;;;;;;;;;;;;;;;;;5057775;28;20388;-66
2023/02/11 16:32:38;;;;;;;;;;;;;;;;;;5053806;28;19920;-66
2023/02/11 16:35:04;;;;;;;;;;;;;;;;;;5055366;28;19924;-66
2023/02/11 16:37:31;;;;;;;;;;;;;;;;;;5051973;28;20386;-66
2023/02/11 16:39:57;;;;;;;;;;;;;;;;;;5051413;28;19933;-66
2023/02/11 16:42:23;;;;;;;;;;;;;;;;;;5047453;28;20479;-65
2023/02/11 16:44:49;;;;;;;;;;;;;;;;;;5051830;28;20015;-66
2023/02/11 16:47:15;;;;;;;;;;;;;;;;;;5055076;28;20012;-66
2023/02/11 16:49:41;;;;;;;;;;;;;;;;;;5054059;28;19924;-66